Flight Track Log - Related Links

Times and Time Zones

All times are in EDT time to prevent confusion due to time zone crossing. See the N30637 flight status page for this flight to view local times or setup timezone preferences in your user account.

Time Position Orientation Groundspeed Altitude Reporting Facility
EDT Latitude Longitude Course Direction KTS MPH feet Rate Location/Type
Tue 08:21:13 AM 42.7667 -71.5000 217° Southwest 78 90 1,300  Level KA90
Tue 08:22:12 AM 42.7500 -71.5167 216° Southwest 99 114 2,200 814 Climbing KA90
Tue 08:23:11 AM 42.7333 -71.5500 236° Southwest 99 114 2,900 655 Climbing KA90
Tue 08:24:11 AM 42.7000 -71.5667 200° South 100 115 3,500 585 Climbing KA90
Tue 08:25:14 AM 42.6833 -71.5833 216° Southwest 101 116 4,100 500 Climbing KA90
Tue 08:26:00 AM 42.6427 -71.6569 217° Southwest  Level FlightAware Approximate
Tue 08:26:11 AM 42.6667 -71.6167 236° Southwest 103 119 4,500  Level KA90
Tue 08:27:13 AM 42.6333 -71.6500 216° Southwest 115 132 4,500  Level KA90
Tue 08:28:06 AM 42.6167 -71.6667 216° Southwest 114 131 4,500  Level KA90
Tue 08:29:08 AM 42.6000 -71.7000 236° Southwest 111 128 4,500  Level KA90
Tue 08:30:08 AM 42.5667 -71.7167 200° South 108 124 4,500  Level KA90
Tue 08:30:47 AM 42.5525 -71.7422 233° Southwest 108 124 4,500  Level Boston Center
Tue 08:31:17 AM 42.5419 -71.7531 217° Southwest 108 124 4,500  Level Boston Center
Tue 08:32:18 AM 42.5175 -71.7794 219° Southwest 109 125 4,500  Level Boston Center
Tue 08:33:19 AM 42.4953 -71.8067 222° Southwest 112 129 4,500  Level Boston Center
Tue 08:34:18 AM 42.4703 -71.8356 220° Southwest 113 130 4,500  Level Boston Center
Tue 08:35:21 AM 42.4433 -71.8642 218° Southwest 113 130 4,500  Level Boston Center
Tue 08:36:20 AM 42.4214 -71.8883 219° Southwest 110 127 4,500  Level Boston Center
Tue 08:37:20 AM 42.3967 -71.9175 221° Southwest 112 129 4,500  Level Boston Center
Tue 08:38:21 AM 42.3747 -71.9419 219° Southwest 109 125 4,500  Level Boston Center
Tue 08:39:29 AM 42.3492 -71.9717 221° Southwest 110 127 4,500  Level Boston Center
Tue 08:40:24 AM 42.3278 -71.9950 219° Southwest 106 122 4,500  Level Boston Center
Tue 08:41:28 AM 42.3022 -72.0236 220° Southwest 109 125 4,500  Level Boston Center
Tue 08:42:25 AM 42.2783 -72.0503 220° Southwest 106 122 4,500  Level Boston Center
Tue 08:43:24 AM 42.2567 -72.0744 220° Southwest 105 121 4,500  Level Boston Center
Tue 08:44:27 AM 42.2319 -72.1008 218° Southwest 111 128 4,500  Level Boston Center
Tue 08:45:25 AM 42.2097 -72.1278 222° Southwest 106 122 4,500  Level Boston Center
Tue 08:46:30 AM 42.1878 -72.1519 219° Southwest 109 125 4,500  Level Boston Center
Tue 08:47:36 AM 42.1622 -72.1806 220° Southwest 107 123 4,500  Level Boston Center
Tue 08:48:29 AM 42.1408 -72.2047 220° Southwest 107 123 4,500  Level Boston Center
Tue 08:49:31 AM 42.1164 -72.2308 218° Southwest 107 123 4,500  Level Boston Center
Tue 08:50:31 AM 42.0944 -72.2550 219° Southwest 107 123 4,500  Level Boston Center
Tue 08:51:38 AM 42.0689 -72.2831 219° Southwest 104 120 4,500 -47 Level Boston Center
Tue 08:52:39 AM 42.0456 -72.3092 220° Southwest 106 122 4,400 -50 Descending Boston Center
Tue 08:53:38 AM 42.0228 -72.3339 219° Southwest 107 123 4,400  Level Boston Center
Tue 08:54:42 AM 41.9978 -72.3619 220° Southwest 107 123 4,400 53 Level Boston Center
Tue 08:55:32 AM 41.9783 -72.3847 221° Southwest 110 127 4,500 95 Climbing Boston Center
Tue 08:55:45 AM 41.9747 -72.3875 210° Southwest 107 123 4,500 -81 Level Boston Center
Tue 08:56:46 AM 41.9522 -72.4133 220° Southwest 107 123 4,400 -49 Descending Boston Center
Tue 08:57:47 AM 41.9297 -72.4378 219° Southwest 107 123 4,400 -110 Level Boston Center
Tue 08:58:35 AM 41.9072 -72.4606 217° Southwest 118 136 4,200 -300 Descending Boston Center
Tue 08:58:47 AM 41.9047 -72.4658 238° Southwest 115 132 4,100 -492 Descending Boston Center
Tue 08:59:36 AM 41.8817 -72.4917 220° Southwest 125 144 3,700 -492 Descending Boston Center
Tue 08:59:48 AM 41.8758 -72.4975 217° Southwest 122 140 3,600 -500 Descending Boston Center
Tue 09:00:36 AM 41.8542 -72.5222 220° Southwest 131 151 3,200 -500 Descending Boston Center
Tue 09:00:48 AM 41.8475 -72.5294 219° Southwest 129 148 3,100 -484 Descending Boston Center
Tue 09:01:38 AM 41.8244 -72.5522 216° Southwest 134 154 2,700 -581 Descending Boston Center
Tue 09:01:50 AM 41.8178 -72.5597 220° Southwest 131 151 2,500 -800 Descending Boston Center
Tue 09:02:38 AM 41.7936 -72.5872 220° Southwest 140 161 1,900 -689 Descending Boston Center
Tue 09:02:51 AM 41.7881 -72.5933 219° Southwest 135 155 1,800 -492 Descending Boston Center
Tue 09:03:39 AM 41.7633 -72.6197 219° Southwest 134 154 1,400 -500 Descending Boston Center
Tue 09:03:51 AM 41.7594 -72.6244 222° Southwest 135 155 1,300 -247 Descending Boston Center
Tue 09:04:52 AM 41.7281 -72.6392 199° South 109 125 1,100 -164 Descending Boston Center
Tue 09:05:41 AM 41.7161 -72.6519 219° Southwest 76 87 1,000 -295 Descending Boston Center
Tue 09:05:53 AM 41.7203 -72.6522 357° North 87 100 800 -581 Descending Boston Center
Tue 09:06:43 AM 41.7292 -72.6508 North 71 82 400 -581 Descending Boston Center
Tue 09:06:55 AM 41.7369 -72.6483 13° North 82 94 200 -1,000 Descending Boston Center

Login

Don't have an account? Register now (free) for customized features, flight alerts, and more!